Time;durP1;ratioP1;P1;durP2;ratioP2;P2;SDS_P1;SDS_P2;PMS_P1;PMS_P2;Temp;Humidity;BMP_temperature;BMP_pressure;BME280_temperature;BME280_humidity;BME280_pressure;Samples;Min_cycle;Max_cycle;Signal;HPM_P1;HPM_P2
2022/08/01 00:02:11;;;;;;;5.93;2.05;;;25.10;92.60;;;;;;4917116;29;20030;-79
2022/08/01 00:04:36;;;;;;;3.45;1.67;;;25.10;92.60;;;;;;4934421;29;20039;-79
2022/08/01 00:07:02;;;;;;;3.20;1.80;;;25.00;93.30;;;;;;4934107;29;20087;-79
2022/08/01 00:09:28;;;;;;;9.07;2.10;;;24.90;93.60;;;;;;4934091;29;20048;-79
2022/08/01 00:11:53;;;;;;;3.92;2.05;;;24.70;94.80;;;;;;4951806;29;20046;-79
2022/08/01 00:14:19;;;;;;;4.30;1.88;;;24.60;95.60;;;;;;4952981;29;20035;-79
2022/08/01 00:16:45;;;;;;;6.20;2.35;;;24.60;96.00;;;;;;4956429;28;20026;-79
2022/08/01 00:19:10;;;;;;;3.58;2.00;;;24.50;96.70;;;;;;4956982;29;20032;-79
2022/08/01 00:21:36;;;;;;;3.13;2.05;;;24.40;97.00;;;;;;4956745;29;20479;-79
2022/08/01 00:24:02;;;;;;;9.88;2.42;;;24.40;97.80;;;;;;4957069;29;20074;-79
2022/08/01 00:26:27;;;;;;;3.05;1.80;;;24.30;98.60;;;;;;4956312;29;20020;-79
2022/08/01 00:28:53;;;;;;;4.15;2.20;;;24.50;98.30;;;;;;4956246;29;20035;-79
2022/08/01 00:31:19;;;;;;;5.72;2.20;;;24.20;99.10;;;;;;4956521;29;20026;-79
2022/08/01 00:33:44;;;;;;;3.58;2.10;;;24.30;98.90;;;;;;4956601;29;20106;-79
2022/08/01 00:36:10;;;;;;;4.55;2.33;;;24.30;99.30;;;;;;4956507;29;20027;-79
2022/08/01 00:38:35;;;;;;;4.07;2.47;;;24.30;99.20;;;;;;4956295;29;20078;-79
2022/08/01 00:41:01;;;;;;;7.40;2.15;;;24.30;99.60;;;;;;4939098;29;20035;-79
2022/08/01 00:43:27;;;;;;;6.32;2.78;;;24.10;99.90;;;;;;4956223;29;20472;-79
2022/08/01 00:45:52;;;;;;;5.65;2.55;;;24.10;99.90;;;;;;4956366;29;20027;-79
2022/08/01 00:48:18;;;;;;;5.55;2.47;;;24.10;99.90;;;;;;4956305;29;20069;-80
2022/08/01 00:50:45;;;;;;;5.75;2.33;;;23.90;99.90;;;;;;4955896;28;20071;-79
2022/08/01 00:53:11;;;;;;;4.30;2.42;;;23.90;99.90;;;;;;4938808;29;20039;-79
2022/08/01 00:55:36;;;;;;;6.57;2.53;;;23.70;99.90;;;;;;4955665;29;20023;-79
2022/08/01 00:58:02;;;;;;;11.15;2.30;;;23.50;99.90;;;;;;4956354;28;20034;-79
2022/08/01 01:00:28;;;;;;;4.10;2.40;;;23.60;99.90;;;;;;4955540;29;20038;-79
2022/08/01 01:02:54;;;;;;;7.45;2.35;;;23.60;99.90;;;;;;4938914;29;20035;-79
2022/08/01 01:05:20;;;;;;;5.32;2.50;;;23.60;99.90;;;;;;4955849;29;20019;-79
2022/08/01 01:08:13;;;;;;;6.18;2.50;;;23.60;99.90;;;;;;4955662;29;20027;-79
2022/08/01 01:11:04;;;;;;;4.10;2.50;;;23.50;99.90;;;;;;4955858;29;20476;-79
2022/08/01 01:13:41;;;;;;;3.83;2.42;;;23.40;99.90;;;;;;4955635;29;20035;-79
2022/08/01 01:16:13;;;;;;;5.47;2.83;;;23.40;99.90;;;;;;4955908;29;20027;-79
2022/08/01 01:18:42;;;;;;;;;;;23.30;99.90;;;;;;4956067;29;20035;-80
2022/08/01 01:21:17;;;;;;;9.27;2.50;;;23.30;99.90;;;;;;4955789;29;19938;-79
2022/08/01 01:23:57;;;;;;;4.97;2.60;;;22.90;99.90;;;;;;4954595;29;20034;-79
2022/08/01 01:26:38;;;;;;;5.30;2.50;;;23.00;99.90;;;;;;4954496;28;20035;-79
2022/08/01 01:29:05;;;;;;;4.25;2.63;;;23.10;99.90;;;;;;4955726;29;20023;-79
2022/08/01 01:31:40;;;;;;;4.55;3.00;;;23.00;99.90;;;;;;4955126;28;20554;-79
2022/08/01 01:34:07;;;;;;;4.40;2.55;;;23.10;99.90;;;;;;4963378;28;20027;-79
2022/08/01 01:36:34;;;;;;;3.00;2.10;;;22.80;99.90;;;;;;4938502;29;20459;-79
2022/08/01 01:39:00;;;;;;;7.13;2.53;;;23.00;99.90;;;;;;4955171;29;20399;-79
2022/08/01 01:41:28;;;;;;;5.30;2.65;;;22.80;99.90;;;;;;4956004;29;20395;-79
2022/08/01 01:43:55;;;;;;;5.07;2.53;;;22.70;99.90;;;;;;4955365;29;20027;-79
2022/08/01 01:46:24;;;;;;;5.93;2.47;;;22.80;99.90;;;;;;4955095;29;20046;-79
2022/08/01 01:48:51;;;;;;;6.28;2.45;;;22.70;99.90;;;;;;4954892;29;20030;-79
2022/08/01 01:51:20;;;;;;;6.28;2.25;;;22.70;99.90;;;;;;4954732;29;20061;-79
2022/08/01 01:53:49;;;;;;;5.53;2.25;;;22.80;99.90;;;;;;4954750;29;20031;-79
2022/08/01 01:56:18;;;;;;;5.45;2.67;;;22.70;99.90;;;;;;4955215;29;20031;-79
2022/08/01 01:58:45;;;;;;;8.13;2.40;;;22.70;99.90;;;;;;4954930;29;20035;-79
2022/08/01 02:01:12;;;;;;;6.25;2.40;;;22.70;99.90;;;;;;4955060;29;20031;-79
2022/08/01 02:03:39;;;;;;;6.53;2.30;;;22.60;99.90;;;;;;4937685;29;20031;-78
2022/08/01 02:06:06;;;;;;;11.52;2.40;;;22.60;99.90;;;;;;4954563;29;20035;-79
2022/08/01 02:08:33;;;;;;;9.30;2.83;;;22.60;99.90;;;;;;4954170;29;20019;-79
2022/08/01 02:11:19;;;;;;;5.63;2.70;;;22.40;99.90;;;;;;4955204;29;20031;-79
2022/08/01 02:13:49;;;;;;;6.88;2.90;;;22.60;99.90;;;;;;4937890;29;20031;-79
2022/08/01 02:16:16;;;;;;;3.30;2.15;;;22.20;99.90;;;;;;4954655;29;20038;-79
2022/08/01 02:18:42;;;;;;;3.63;2.25;;;22.20;99.90;;;;;;4954469;29;20030;-79
2022/08/01 02:21:12;;;;;;;5.40;2.75;;;22.30;99.90;;;;;;4954845;29;20039;-79
2022/08/01 02:23:39;;;;;;;6.68;2.50;;;22.20;99.90;;;;;;4954207;28;20034;-79
2022/08/01 02:26:12;;;;;;;5.82;2.85;;;22.20;99.90;;;;;;4954590;29;20023;-79
2022/08/01 02:28:47;;;;;;;3.85;2.08;;;22.30;99.90;;;;;;4954425;29;20046;-79
2022/08/01 02:31:16;;;;;;;8.38;3.00;;;22.30;99.90;;;;;;4954054;28;20023;-79
2022/08/01 02:33:45;;;;;;;4.32;2.30;;;22.30;99.90;;;;;;4954398;29;20558;-78
2022/08/01 02:36:12;;;;;;;7.55;2.92;;;22.20;99.90;;;;;;4954412;29;20023;-79
2022/08/01 02:38:44;;;;;;;5.10;2.30;;;22.30;99.90;;;;;;4953655;28;20027;-79
2022/08/01 02:41:14;;;;;;;8.32;3.00;;;22.00;99.90;;;;;;4954313;29;20106;-79
2022/08/01 02:43:45;;;;;;;5.57;2.83;;;22.10;99.90;;;;;;4954168;29;20058;-79
2022/08/01 02:46:21;;;;;;;8.60;2.90;;;22.00;99.90;;;;;;4954263;29;20050;-79
2022/08/01 02:48:49;;;;;;;6.20;2.40;;;22.00;99.90;;;;;;4954379;29;20110;-79
2022/08/01 02:51:16;;;;;;;4.07;2.28;;;22.00;99.90;;;;;;4953594;28;20039;-79
2022/08/01 02:53:43;;;;;;;4.55;2.10;;;22.00;99.90;;;;;;4953936;29;20031;-79
2022/08/01 02:56:11;;;;;;;7.65;2.20;;;22.10;99.90;;;;;;4954107;29;20130;-79
2022/08/01 02:58:37;;;;;;;5.18;2.85;;;22.20;99.90;;;;;;4954347;29;20031;-79
2022/08/01 03:01:06;;;;;;;6.97;2.40;;;22.10;99.90;;;;;;4936863;29;20065;-79
2022/08/01 03:03:33;;;;;;;7.30;2.05;;;22.10;99.90;;;;;;4953840;29;20404;-79
2022/08/01 03:06:00;;;;;;;4.35;2.05;;;21.70;99.90;;;;;;4936457;29;20023;-79
2022/08/01 03:08:28;;;;;;;5.30;2.90;;;21.50;99.90;;;;;;4936707;29;20562;-79
2022/08/01 03:10:56;;;;;;;7.95;2.75;;;21.50;99.90;;;;;;4953918;29;20483;-79
2022/08/01 03:13:24;;;;;;;6.35;2.70;;;21.50;99.90;;;;;;4954328;29;20027;-79
2022/08/01 03:15:51;;;;;;;4.30;1.98;;;21.60;99.90;;;;;;4953467;29;20390;-79
2022/08/01 03:18:18;;;;;;;4.70;2.50;;;21.70;99.90;;;;;;4953912;29;20028;-79
2022/08/01 03:20:45;;;;;;;5.38;2.40;;;21.90;99.90;;;;;;4936488;29;20038;-79
2022/08/01 03:23:12;;;;;;;5.35;2.58;;;21.80;99.90;;;;;;4953789;29;20479;-79
2022/08/01 03:25:40;;;;;;;9.18;2.30;;;21.60;99.90;;;;;;4953599;29;20499;-79
2022/08/01 03:28:08;;;;;;;4.10;2.15;;;21.60;99.90;;;;;;4953551;29;20019;-79
2022/08/01 03:30:36;;;;;;;3.70;2.17;;;21.40;99.90;;;;;;4953883;29;20435;-79
2022/08/01 03:33:02;;;;;;;4.90;2.22;;;21.50;99.90;;;;;;4953525;29;20472;-78
2022/08/01 03:35:42;;;;;;;4.00;2.45;;;21.10;99.90;;;;;;4936093;29;20042;-78
2022/08/01 03:38:10;;;;;;;7.97;2.65;;;21.10;99.90;;;;;;4953594;29;20032;-79
2022/08/01 03:40:40;;;;;;;6.18;2.40;;;21.10;99.90;;;;;;4953898;29;20032;-79
2022/08/01 03:43:12;;;;;;;5.05;2.55;;;21.30;99.90;;;;;;4953838;29;20031;-79
2022/08/01 03:45:39;;;;;;;;;;;21.40;99.90;;;;;;4953696;29;20384;-79
2022/08/01 03:48:10;;;;;;;6.00;1.92;;;21.20;99.90;;;;;;4953298;29;19909;-79
2022/08/01 03:50:39;;;;;;;7.30;2.30;;;21.30;99.90;;;;;;4955057;28;20054;-79
2022/08/01 03:53:09;;;;;;;4.78;2.25;;;21.30;99.90;;;;;;4956948;29;20066;-79
2022/08/01 03:55:37;;;;;;;4.15;1.90;;;21.20;99.90;;;;;;4957436;29;20027;-79
2022/08/01 03:58:04;;;;;;;5.32;1.85;;;21.00;99.90;;;;;;4957168;29;20483;-79
2022/08/01 04:00:30;;;;;;;6.80;2.28;;;21.00;99.90;;;;;;4957081;29;20097;-79
2022/08/01 04:02:56;;;;;;;4.60;2.05;;;21.20;99.90;;;;;;4956767;29;20171;-79
2022/08/01 04:05:22;;;;;;;6.97;2.83;;;21.10;99.90;;;;;;4957223;29;20110;-79
2022/08/01 04:07:55;;;;;;;7.32;2.60;;;21.10;99.90;;;;;;4957031;29;20024;-79
2022/08/01 04:10:24;;;;;;;5.20;2.67;;;21.00;99.90;;;;;;4957207;29;20027;-79
2022/08/01 04:12:50;;;;;;;4.72;2.33;;;20.70;99.90;;;;;;4956376;29;20094;-79
2022/08/01 04:15:16;;;;;;;8.85;2.47;;;20.80;99.90;;;;;;4969532;28;20022;-79
2022/08/01 04:17:42;;;;;;;5.80;2.88;;;20.90;99.90;;;;;;4970323;28;20034;-79
2022/08/01 04:20:08;;;;;;;4.00;2.22;;;21.00;99.90;;;;;;4956746;29;20094;-79
2022/08/01 04:22:35;;;;;;;6.28;2.60;;;20.70;99.90;;;;;;4956594;29;20082;-79
2022/08/01 04:25:04;;;;;;;7.60;2.60;;;20.60;99.90;;;;;;4956561;29;20023;-79
2022/08/01 04:27:35;;;;;;;6.15;2.72;;;20.60;99.90;;;;;;4956792;29;20029;-79
2022/08/01 04:30:01;;;;;;;4.95;2.30;;;20.70;99.90;;;;;;4956392;29;20487;-78
2022/08/01 04:32:31;;;;;;;5.05;2.17;;;20.70;99.90;;;;;;4956580;29;20103;-79
2022/08/01 04:35:00;;;;;;;7.63;3.30;;;20.60;99.90;;;;;;4955962;29;20399;-78
2022/08/01 04:37:27;;;;;;;5.88;2.55;;;20.70;99.90;;;;;;4956623;29;20039;-79
2022/08/01 04:39:56;;;;;;;14.52;2.97;;;20.60;99.90;;;;;;4956254;29;20551;-79
2022/08/01 04:42:22;;;;;;;4.93;2.50;;;20.70;99.90;;;;;;4956693;29;20472;-79
2022/08/01 04:44:48;;;;;;;9.98;2.67;;;20.70;99.90;;;;;;4955771;29;20102;-79
2022/08/01 04:47:14;;;;;;;6.97;2.58;;;20.90;99.90;;;;;;4956222;29;20031;-79
2022/08/01 04:49:40;;;;;;;5.72;2.38;;;20.80;99.90;;;;;;4956330;29;20432;-79
2022/08/01 04:52:06;;;;;;;5.18;2.63;;;20.80;99.90;;;;;;4955900;29;20043;-79
2022/08/01 04:54:36;;;;;;;6.68;2.67;;;20.60;99.90;;;;;;4956714;29;20065;-79
2022/08/01 04:57:03;;;;;;;8.00;2.88;;;20.40;99.90;;;;;;4956082;29;20059;-79
2022/08/01 04:59:39;;;;;;;6.75;2.47;;;20.40;99.90;;;;;;4956281;29;20074;-79
2022/08/01 05:02:07;;;;;;;4.35;2.55;;;20.40;99.90;;;;;;4953962;28;20042;-79
2022/08/01 05:04:33;;;;;;;6.30;2.72;;;20.70;99.90;;;;;;4955856;29;20051;-79
2022/08/01 05:06:59;;;;;;;6.75;2.28;;;20.70;99.90;;;;;;4957726;28;20039;-79
2022/08/01 05:09:25;;;;;;;5.50;2.83;;;20.70;99.90;;;;;;4955463;29;20019;-79
2022/08/01 05:11:51;;;;;;;7.22;2.60;;;20.50;99.90;;;;;;4955816;29;20030;-79
2022/08/01 05:14:17;;;;;;;6.78;2.85;;;20.50;99.90;;;;;;4956297;29;20031;-79
2022/08/01 05:16:42;;;;;;;5.85;2.78;;;20.60;99.90;;;;;;4938251;29;20166;-79
2022/08/01 05:19:08;;;;;;;6.55;2.70;;;20.60;99.90;;;;;;4955821;29;20030;-79
2022/08/01 05:21:35;;;;;;;9.57;2.95;;;20.70;99.90;;;;;;4937822;29;20123;-79
2022/08/01 05:24:00;;;;;;;7.53;3.22;;;20.70;99.90;;;;;;4937731;29;20507;-78
2022/08/01 05:26:26;;;;;;;5.13;2.95;;;20.80;99.90;;;;;;4955538;29;20042;-78
2022/08/01 05:28:52;;;;;;;9.70;3.08;;;20.80;99.90;;;;;;4955930;29;20031;-78
2022/08/01 05:31:18;;;;;;;7.13;3.58;;;20.70;99.90;;;;;;4955227;29;20039;-78
2022/08/01 05:33:43;;;;;;;8.68;3.30;;;20.70;99.90;;;;;;4955357;29;20027;-78
2022/08/01 05:36:09;;;;;;;10.23;3.58;;;20.70;99.90;;;;;;4955263;29;20496;-79
2022/08/01 05:38:35;;;;;;;10.45;3.40;;;20.80;99.90;;;;;;4955550;29;20466;-78
2022/08/01 05:41:00;;;;;;;7.47;3.83;;;20.80;99.90;;;;;;4955650;28;20046;-79
2022/08/01 05:43:26;;;;;;;4.88;3.35;;;20.70;99.90;;;;;;4955360;29;20027;-78
2022/08/01 05:45:52;;;;;;;6.15;3.08;;;20.60;99.90;;;;;;4954888;29;20031;-78
2022/08/01 05:48:17;;;;;;;11.23;4.30;;;20.70;99.90;;;;;;4955303;29;20024;-78
2022/08/01 05:50:43;;;;;;;9.05;3.90;;;20.60;99.90;;;;;;4955366;29;20095;-79
2022/08/01 05:53:09;;;;;;;11.88;3.80;;;20.70;99.90;;;;;;4954931;29;20384;-78
2022/08/01 05:55:35;;;;;;;9.00;4.25;;;20.80;99.90;;;;;;4954755;29;20480;-78
2022/08/01 05:58:01;;;;;;;9.57;4.13;;;20.90;99.90;;;;;;4954850;29;20109;-79
2022/08/01 06:00:27;;;;;;;8.38;4.30;;;21.00;99.90;;;;;;4954837;29;20544;-79
2022/08/01 06:02:52;;;;;;;16.73;5.10;;;21.00;99.90;;;;;;4955008;29;20027;-79
2022/08/01 06:05:18;;;;;;;15.63;5.03;;;21.10;99.90;;;;;;4954841;29;20035;-79
2022/08/01 06:07:44;;;;;;;14.52;4.40;;;21.00;99.90;;;;;;4954939;29;20034;-79
2022/08/01 06:10:10;;;;;;;10.75;4.70;;;21.10;99.90;;;;;;4954629;29;20030;-78
2022/08/01 06:12:36;;;;;;;11.13;5.30;;;21.10;99.90;;;;;;4954728;28;20026;-79
2022/08/01 06:15:03;;;;;;;10.23;5.28;;;21.20;99.90;;;;;;4954068;29;20110;-79
2022/08/01 06:17:29;;;;;;;7.13;4.93;;;21.30;99.90;;;;;;4955163;29;20023;-79
2022/08/01 06:19:55;;;;;;;10.45;5.75;;;21.30;99.90;;;;;;4954625;29;20041;-79
2022/08/01 06:22:21;;;;;;;10.98;5.30;;;21.40;99.90;;;;;;4937247;29;20451;-79
2022/08/01 06:24:47;;;;;;;10.93;5.47;;;21.40;99.90;;;;;;4954494;29;20085;-79
2022/08/01 06:27:13;;;;;;;13.13;5.72;;;21.40;99.90;;;;;;4954922;29;20019;-79
2022/08/01 06:29:38;;;;;;;9.95;5.45;;;21.50;99.90;;;;;;4953666;29;20031;-79
2022/08/01 06:32:05;;;;;;;10.35;5.35;;;21.60;99.90;;;;;;4936563;29;20038;-79
2022/08/01 06:34:30;;;;;;;14.65;5.65;;;21.60;99.90;;;;;;4954204;28;20439;-79
2022/08/01 06:36:56;;;;;;;11.40;5.65;;;21.70;99.90;;;;;;4954273;29;20066;-79
2022/08/01 06:39:21;;;;;;;14.00;5.38;;;21.70;99.90;;;;;;4954285;29;20062;-79
2022/08/01 06:41:47;;;;;;;12.60;5.93;;;21.80;99.90;;;;;;4954868;29;20035;-79
2022/08/01 06:44:13;;;;;;;11.80;5.13;;;21.90;99.90;;;;;;4953622;29;20173;-79
2022/08/01 06:46:39;;;;;;;14.40;5.88;;;21.90;99.90;;;;;;4954206;29;20023;-79
2022/08/01 06:49:05;;;;;;;10.02;5.60;;;22.00;99.90;;;;;;4964616;28;20034;-79
2022/08/01 06:51:31;;;;;;;9.05;5.63;;;22.00;99.90;;;;;;4968721;28;20077;-79
2022/08/01 06:53:56;;;;;;;9.73;5.95;;;22.00;99.90;;;;;;4953918;29;20442;-78
2022/08/01 06:56:22;;;;;;;12.93;5.53;;;22.10;99.90;;;;;;4954225;29;20031;-79
2022/08/01 06:58:49;;;;;;;9.75;5.72;;;22.10;99.90;;;;;;4953954;29;20058;-79
2022/08/01 07:01:15;;;;;;;15.20;5.68;;;22.20;99.90;;;;;;4934856;29;20027;-79
2022/08/01 07:03:41;;;;;;;10.75;5.22;;;22.30;99.90;;;;;;4938172;28;20027;-79
2022/08/01 07:06:06;;;;;;;9.38;5.55;;;22.30;99.90;;;;;;4938952;28;20031;-79
2022/08/01 07:08:32;;;;;;;13.65;5.32;;;22.40;99.90;;;;;;4938631;29;20035;-78
2022/08/01 07:10:59;;;;;;;13.00;5.25;;;22.50;99.90;;;;;;4953865;28;20126;-79
2022/08/01 07:13:30;;;;;;;13.52;5.55;;;22.60;99.90;;;;;;4952882;29;20499;-79
2022/08/01 07:15:56;;;;;;;10.60;5.90;;;22.60;99.90;;;;;;4953933;29;20050;-75
2022/08/01 07:18:22;;;;;;;11.65;5.97;;;22.60;99.90;;;;;;4953569;29;20443;-75
2022/08/01 07:20:49;;;;;;;10.60;5.03;;;22.70;99.90;;;;;;4953306;29;20110;-77
2022/08/01 07:23:15;;;;;;;6.22;4.82;;;22.80;99.90;;;;;;4952211;29;20059;-74
2022/08/01 07:25:41;;;;;;;12.90;5.90;;;22.80;99.90;;;;;;4954573;28;20086;-76
2022/08/01 07:28:07;;;;;;;11.38;5.75;;;22.80;99.90;;;;;;4956883;29;20031;-74
2022/08/01 07:30:33;;;;;;;9.15;4.90;;;22.90;99.90;;;;;;4960124;28;20019;-74
2022/08/01 07:32:59;;;;;;;9.77;5.32;;;22.90;99.90;;;;;;4969397;28;20027;-77
2022/08/01 07:35:25;;;;;;;9.30;5.50;;;23.00;99.90;;;;;;4961198;28;20141;-74
2022/08/01 07:37:50;;;;;;;7.32;4.70;;;23.10;99.90;;;;;;4957385;29;20106;-76
2022/08/01 07:40:17;;;;;;;12.10;5.13;;;23.10;99.90;;;;;;4960641;28;20081;-81
2022/08/01 07:42:44;;;;;;;8.90;4.93;;;23.20;99.90;;;;;;4957863;28;20031;-81
2022/08/01 07:45:11;;;;;;;11.50;5.57;;;23.30;99.90;;;;;;4959230;28;20023;-78
2022/08/01 07:47:37;;;;;;;10.88;4.65;;;23.40;99.90;;;;;;4969086;28;20023;-74
2022/08/01 07:50:05;;;;;;;19.13;5.68;;;23.40;99.90;;;;;;4963785;28;20023;-74
2022/08/01 07:52:31;;;;;;;11.25;5.13;;;23.50;99.90;;;;;;4957283;28;20027;-74
2022/08/01 07:54:58;;;;;;;10.30;4.13;;;23.50;99.90;;;;;;4961127;28;20235;-74
2022/08/01 07:57:25;;;;;;;7.28;4.22;;;23.50;99.90;;;;;;4961232;28;20027;-74
2022/08/01 07:59:51;;;;;;;9.27;4.20;;;23.70;99.90;;;;;;4956333;28;20445;-74
2022/08/01 08:02:17;;;;;;;20.60;5.53;;;23.80;99.90;;;;;;4957298;28;20090;-74
2022/08/01 08:04:42;;;;;;;17.42;4.93;;;23.90;99.90;;;;;;4976078;28;20027;-74
2022/08/01 08:07:08;;;;;;;20.80;4.65;;;24.00;99.90;;;;;;4973503;28;20067;-81
2022/08/01 08:09:34;;;;;;;17.58;4.63;;;24.10;99.90;;;;;;4962894;28;20101;-78
2022/08/01 08:11:59;;;;;;;10.27;4.28;;;24.10;99.90;;;;;;4959101;28;20034;-78
2022/08/01 08:14:25;;;;;;;8.77;4.22;;;24.20;99.90;;;;;;4956039;28;20135;-78
2022/08/01 08:16:52;;;;;;;11.27;4.75;;;24.50;99.90;;;;;;4956571;29;20038;-77
2022/08/01 08:19:18;;;;;;;12.15;4.18;;;24.70;99.90;;;;;;4956391;28;20042;-78
2022/08/01 08:21:43;;;;;;;21.00;5.28;;;24.90;99.90;;;;;;4956639;29;20133;-83
2022/08/01 08:24:19;;;;;;;9.70;4.38;;;25.00;99.90;;;;;;4939155;29;20491;-78
2022/08/01 08:26:45;;;;;;;6.63;3.97;;;25.30;99.90;;;;;;4956907;29;20027;-76
2022/08/01 08:29:10;;;;;;;8.63;4.20;;;25.50;99.90;;;;;;4955661;29;20026;-77
2022/08/01 08:31:36;;;;;;;14.23;4.40;;;25.80;99.50;;;;;;4955730;29;20038;-77
2022/08/01 08:34:02;;;;;;;34.83;4.40;;;26.00;98.90;;;;;;4957066;29;20027;-86
2022/08/01 08:36:27;;;;;;;9.60;4.28;;;26.30;97.80;;;;;;4956513;28;20082;-86
2022/08/01 08:38:53;;;;;;;12.73;4.30;;;26.50;96.70;;;;;;4939424;29;20399;-86
2022/08/01 08:41:19;;;;;;;12.95;4.15;;;26.70;96.20;;;;;;4958426;28;20474;-87
2022/08/01 08:43:44;;;;;;;15.13;4.35;;;26.80;95.50;;;;;;4939617;29;20115;-87
2022/08/01 08:46:12;;;;;;;12.65;4.18;;;27.10;94.30;;;;;;4938827;29;20443;-84
2022/08/01 08:48:40;;;;;;;15.70;4.05;;;27.20;94.20;;;;;;4956876;29;20114;-88
2022/08/01 08:51:08;;;;;;;16.80;4.72;;;27.30;93.70;;;;;;4946025;29;20077;-87
2022/08/01 08:53:35;;;;;;;84.20;9.05;;;27.60;93.60;;;;;;4955675;29;20074;-88
2022/08/01 08:56:03;;;;;;;62.40;7.90;;;27.70;92.60;;;;;;4955701;29;20043;-88
2022/08/01 08:58:33;;;;;;;31.67;4.93;;;27.80;91.90;;;;;;4955375;29;20023;-89
2022/08/01 09:01:00;;;;;;;98.95;8.02;;;27.90;92.40;;;;;;4956893;29;20059;-88
2022/08/01 09:03:25;;;;;;;20.65;4.13;;;28.30;90.90;;;;;;4955787;29;20027;-88
2022/08/01 09:05:51;;;;;;;225.65;10.18;;;27.90;91.90;;;;;;4955535;29;20118;-88
2022/08/01 09:08:17;;;;;;;17.40;4.10;;;28.10;91.70;;;;;;4956057;28;20028;-88
2022/08/01 09:10:42;;;;;;;13.13;4.10;;;28.50;90.60;;;;;;4956050;29;20060;-88
2022/08/01 09:13:14;;;;;;;10.75;3.85;;;28.70;88.70;;;;;;4961412;28;20031;-88
2022/08/01 09:15:53;;;;;;;11.60;4.00;;;28.90;87.50;;;;;;4975091;28;20081;-88
2022/08/01 09:18:39;;;;;;;24.05;4.45;;;29.20;86.00;;;;;;4938053;29;20627;-87
2022/08/01 09:21:23;;;;;;;11.40;4.15;;;29.40;84.30;;;;;;4947612;29;20034;-85
2022/08/01 09:23:54;;;;;;;7.13;3.95;;;29.20;83.40;;;;;;4955088;29;20023;-82
2022/08/01 09:26:35;;;;;;;11.30;4.13;;;29.10;84.00;;;;;;4955792;28;20427;-86
2022/08/01 09:29:06;;;;;;;6.80;3.90;;;29.20;83.60;;;;;;4954077;29;20071;-85
2022/08/01 09:31:42;;;;;;;7.22;3.65;;;29.20;81.30;;;;;;4954879;28;20385;-82
2022/08/01 09:34:09;;;;;;;8.13;3.53;;;29.60;81.50;;;;;;4955428;28;20098;-82
2022/08/01 09:36:51;;;;;;;14.25;3.67;;;29.70;80.40;;;;;;4954486;28;20047;-83
2022/08/01 09:39:19;;;;;;;9.82;4.03;;;30.00;79.00;;;;;;4969953;28;20042;-87
2022/08/01 09:41:46;;;;;;;16.92;3.88;;;30.30;76.90;;;;;;4954837;28;20104;-84
2022/08/01 09:44:12;;;;;;;12.82;4.07;;;30.40;75.90;;;;;;4955948;28;20031;-88
2022/08/01 09:46:49;;;;;;;12.70;4.00;;;30.20;75.60;;;;;;4954028;29;20082;-86
2022/08/01 09:49:27;;;;;;;15.50;4.15;;;30.50;75.50;;;;;;4959935;28;20039;-89
2022/08/01 09:51:53;;;;;;;9.85;3.60;;;30.30;74.40;;;;;;4954351;28;20067;-87
2022/08/01 09:54:32;;;;;;;9.20;4.07;;;30.30;76.20;;;;;;4953509;29;20275;-84
2022/08/01 09:57:16;;;;;;;9.80;3.90;;;30.40;73.90;;;;;;4954708;28;20020;-84
2022/08/01 09:59:44;;;;;;;21.83;4.35;;;31.00;73.20;;;;;;4964697;28;20040;-85
2022/08/01 10:02:13;;;;;;;10.50;4.07;;;30.70;72.20;;;;;;4968063;28;20040;-85
2022/08/01 10:04:47;;;;;;;9.07;3.65;;;30.70;73.30;;;;;;4970520;28;20050;-84
2022/08/01 10:07:15;;;;;;;9.90;3.33;;;30.80;72.50;;;;;;4959993;28;20420;-87
2022/08/01 10:09:42;;;;;;;8.85;3.58;;;30.90;71.10;;;;;;4969996;28;20027;-85
2022/08/01 10:12:09;;;;;;;10.80;3.60;;;30.90;70.10;;;;;;4954835;29;20035;-83
2022/08/01 10:14:36;;;;;;;12.13;3.50;;;30.90;70.40;;;;;;4961044;28;20519;-87
2022/08/01 10:17:03;;;;;;;7.53;3.67;;;31.10;70.60;;;;;;4957386;28;20558;-88
2022/08/01 10:19:30;;;;;;;6.60;3.13;;;31.30;70.00;;;;;;4953510;28;20406;-87
2022/08/01 10:21:57;;;;;;;9.20;3.55;;;31.60;68.20;;;;;;4955023;28;20023;-87
2022/08/01 10:24:23;;;;;;;10.25;3.55;;;31.40;67.70;;;;;;4953741;29;20476;-85
2022/08/01 10:26:54;;;;;;;8.30;3.90;;;31.60;67.50;;;;;;4955815;28;20061;-79
2022/08/01 10:29:21;;;;;;;5.35;3.33;;;31.50;66.70;;;;;;4962551;28;20059;-79
2022/08/01 10:31:47;;;;;;;7.75;3.85;;;31.70;67.10;;;;;;4954796;28;20082;-76
2022/08/01 10:34:18;;;;;;;11.55;3.35;;;31.70;64.10;;;;;;4971249;28;20026;-77
2022/08/01 10:36:47;;;;;;;7.53;2.88;;;31.40;63.50;;;;;;4969543;28;20023;-77
2022/08/01 10:39:13;;;;;;;8.32;3.78;;;31.30;63.20;;;;;;4957866;28;20415;-76
2022/08/01 10:41:40;;;;;;;3.90;2.88;;;31.60;63.50;;;;;;4947374;28;20045;-76
2022/08/01 10:44:09;;;;;;;8.13;3.83;;;31.70;62.80;;;;;;4954316;28;20098;-76
2022/08/01 10:46:44;;;;;;;6.78;3.40;;;31.70;62.40;;;;;;4952063;28;20499;-77
2022/08/01 10:49:14;;;;;;;11.75;3.90;;;31.80;63.20;;;;;;4953245;28;20086;-76
2022/08/01 10:51:41;;;;;;;8.38;3.83;;;31.70;63.00;;;;;;4950944;28;20050;-77
2022/08/01 10:54:08;;;;;;;9.27;4.20;;;32.00;62.10;;;;;;4957510;28;20034;-76
2022/08/01 10:56:48;;;;;;;7.78;3.88;;;31.90;62.10;;;;;;4957971;28;20570;-76
2022/08/01 10:59:25;;;;;;;12.93;3.60;;;31.90;60.70;;;;;;4951959;29;20039;-79
2022/08/01 11:01:59;;;;;;;6.60;3.83;;;32.10;60.80;;;;;;4940480;28;20501;-86
2022/08/01 11:04:48;;;;;;;5.97;3.72;;;32.30;60.00;;;;;;4954267;28;20031;-85
2022/08/01 11:07:20;;;;;;;6.70;3.30;;;32.50;59.90;;;;;;4938327;28;20039;-85
2022/08/01 11:09:48;;;;;;;8.32;3.47;;;32.50;58.10;;;;;;4954549;28;20028;-83
2022/08/01 11:12:16;;;;;;;5.80;3.25;;;32.40;58.90;;;;;;4966450;28;20030;-85
2022/08/01 11:15:00;;;;;;;6.95;3.30;;;32.50;58.30;;;;;;4941548;28;20027;-86
2022/08/01 11:17:48;;;;;;;6.43;3.85;;;32.50;57.40;;;;;;4950868;29;20025;-86
2022/08/01 11:20:25;;;;;;;7.20;3.30;;;32.40;55.50;;;;;;4968001;28;20093;-87
2022/08/01 11:23:00;;;;;;;11.75;3.78;;;32.90;54.90;;;;;;4956597;28;20459;-83
2022/08/01 11:25:38;;;;;;;7.07;3.20;;;32.20;57.70;;;;;;4952507;29;20031;-80
2022/08/01 11:28:25;;;;;;;6.32;3.40;;;32.60;56.00;;;;;;4932688;29;20035;-78
2022/08/01 11:31:17;;;;;;;10.68;3.90;;;32.70;55.00;;;;;;4959178;28;20077;-78
2022/08/01 11:33:44;;;;;;;7.45;4.25;;;32.60;55.70;;;;;;4932400;28;20023;-78
2022/08/01 11:36:10;;;;;;;5.47;3.55;;;32.90;55.50;;;;;;4973480;28;20027;-78
2022/08/01 11:38:37;;;;;;;6.78;3.70;;;32.90;54.10;;;;;;4961385;28;20535;-77
2022/08/01 11:41:33;;;;;;;7.35;3.10;;;32.80;53.90;;;;;;4953185;29;20114;-76
2022/08/01 11:44:08;;;;;;;9.27;3.53;;;33.00;53.00;;;;;;4951309;28;20069;-76
2022/08/01 11:46:52;;;;;;;4.82;3.03;;;32.90;53.00;;;;;;4953749;29;20026;-76
2022/08/01 11:49:36;;;;;;;7.75;3.42;;;33.10;51.40;;;;;;4955302;28;20105;-76
2022/08/01 11:52:27;;;;;;;5.35;2.80;;;33.10;51.00;;;;;;4956542;28;20117;-82
2022/08/01 11:55:00;;;;;;;9.38;3.00;;;33.20;48.80;;;;;;4936798;29;20098;-78
2022/08/01 11:57:34;;;;;;;4.53;3.13;;;33.20;49.20;;;;;;4953963;29;20038;-86
2022/08/01 12:00:03;;;;;;;9.07;2.80;;;33.70;47.80;;;;;;4953902;29;20039;-86
2022/08/01 12:02:33;;;;;;;5.68;2.90;;;33.70;46.40;;;;;;4952617;29;20027;-86
2022/08/01 12:05:08;;;;;;;7.82;3.25;;;33.40;47.90;;;;;;4954011;29;20032;-86
2022/08/01 12:07:35;;;;;;;6.68;2.90;;;33.40;47.10;;;;;;4952788;28;20030;-86
2022/08/01 12:10:05;;;;;;;7.50;3.45;;;33.70;46.80;;;;;;4962998;28;20027;-84
2022/08/01 12:12:33;;;;;;;5.75;3.08;;;33.50;47.10;;;;;;4955710;28;20042;-87
2022/08/01 12:15:01;;;;;;;7.38;2.88;;;33.60;46.30;;;;;;4964271;28;20015;-86
2022/08/01 12:17:47;;;;;;;6.60;3.05;;;33.50;46.30;;;;;;4975648;28;20026;-86
2022/08/01 12:20:20;;;;;;;5.78;3.17;;;33.80;45.90;;;;;;4970461;28;20031;-86
2022/08/01 12:22:46;;;;;;;4.30;2.97;;;34.00;44.10;;;;;;4976071;28;20062;-86
2022/08/01 12:25:14;;;;;;;6.28;3.28;;;33.90;44.30;;;;;;4964097;28;20083;-86
2022/08/01 12:27:41;;;;;;;8.38;3.35;;;34.20;43.70;;;;;;4948572;28;20015;-86
2022/08/01 12:30:12;;;;;;;9.82;2.97;;;34.30;44.40;;;;;;4946220;28;20031;-86
2022/08/01 12:32:40;;;;;;;8.55;2.90;;;33.90;42.90;;;;;;4962118;28;20050;-86
2022/08/01 12:35:07;;;;;;;6.38;2.63;;;33.80;42.60;;;;;;4976880;28;20062;-86
2022/08/01 12:38:07;;;;;;;8.38;3.10;;;33.70;43.20;;;;;;4976192;28;20034;-86
2022/08/01 12:40:35;;;;;;;9.88;3.22;;;33.90;43.70;;;;;;4949079;29;20513;-86
2022/08/01 12:43:05;;;;;;;7.22;2.75;;;34.10;43.40;;;;;;4940138;29;20037;-86
2022/08/01 12:45:39;;;;;;;6.93;2.30;;;33.80;42.60;;;;;;4939896;29;20031;-86
2022/08/01 12:48:15;;;;;;;6.88;2.63;;;33.60;41.30;;;;;;4940189;29;20078;-86
2022/08/01 12:50:44;;;;;;;6.88;2.25;;;33.70;42.80;;;;;;4951427;28;20038;-86
2022/08/01 12:53:10;;;;;;;4.55;2.00;;;33.60;38.90;;;;;;4957697;28;20058;-87
2022/08/01 12:55:47;;;;;;;5.80;2.35;;;33.90;38.20;;;;;;4955753;29;20023;-87